Hedvig Bulker — OWYM2 — position and weather

sailwx.info

Track history (hours):
 
Tides and Currents Weather Stations Pressure Air Temp Water Temp Dewpoint Dewpoint Depression Visibility Wind Speed Wind Dir Waves Ship Positions

Hedvig Bulker

Last reported at 2017-Oct-19 13:34 UTC. Time now 2017-Oct-19 22:10 UTC.
Position N 36°24' W 009°50'.

Length 175 m; draft 7.8 m.

Type: Ship. MMSI: 219594000.

Date/timePositionNaut miles runAvg speedWind from/ knotsBaromVisibWave heightAir tempDewpointWater temp
2017-Oct-19 13:34N 36°24' W 009°50'114.3
2017-Oct-19 13:29N 36°24' W 009°51'66513.4
2017-Oct-17 12:00N 38°12' W 023°36'713.8
2017-Oct-17 11:30N 38°12' W 023°45'713.8
2017-Oct-17 11:00N 38°12' W 023°53'713.5
2017-Oct-17 10:30N 38°12' W 024°02'713.8
2017-Oct-17 10:00N 38°12' W 024°11'713.7
2017-Oct-17 09:30N 38°12' W 024°20'713.6
2017-Oct-17 09:00N 38°12' W 024°28'713.6
2017-Oct-17 08:30N 38°12' W 024°37'713.7
2017-Oct-17 08:00N 38°12' W 024°45'713.8
2017-Oct-17 07:31N 38°13' W 024°54'713.8
2017-Oct-17 07:01N 38°13' W 025°03'713.7
2017-Oct-17 06:31N 38°13' W 025°12'713.8
2017-Oct-17 06:00N 38°13' W 025°20'713.3
2017-Oct-17 05:31N 38°13' W 025°29'713.6
2017-Oct-17 05:01N 38°12' W 025°37'713.4
2017-Oct-17 04:31N 38°11' W 025°46'612.9
2017-Oct-17 04:00N 38°10' W 025°54'713.1
2017-Oct-17 03:30N 38°08' W 026°02'713.3
2017-Oct-17 03:01N 38°07' W 026°10'713.0
2017-Oct-17 02:30N 38°06' W 026°19'612.8
2017-Oct-17 02:00N 38°05' W 026°27'713.0
2017-Oct-17 01:30N 38°04' W 026°35'713.0
2017-Oct-17 01:00N 38°03' W 026°43'613.0
2017-Oct-17 00:31N 38°02' W 026°51'612.9
2017-Oct-17 00:00N 38°01' W 026°59'713.1
2017-Oct-16 23:30N 37°59' W 027°07'713.2
2017-Oct-16 23:00N 37°58' W 027°16'713.4
2017-Oct-16 22:30N 37°57' W 027°24'9613.5
2017-Oct-16 15:23N 37°49' W 029°25'  
Track history (hours):
 
Tides and Currents Weather Stations Pressure Air Temp Water Temp Dewpoint Dewpoint Depression Visibility Wind Speed Wind Dir Waves Ship Positions

Hedvig Bulker

Last reported at 2017-Oct-19 13:34 UTC. Time now 2017-Oct-19 22:10 UTC.
Position N 36°24' W 009°50'.

Length 175 m; draft 7.8 m.

Type: Ship. MMSI: 219594000.

Date/timePositionNaut miles runAvg speedWind from/ knotsBaromVisibWave heightAir tempDewpointWater temp
2017-Oct-19 13:34N 36°24' W 009°50'114.3
2017-Oct-19 13:29N 36°24' W 009°51'66513.4
2017-Oct-17 12:00N 38°12' W 023°36'713.8
2017-Oct-17 11:30N 38°12' W 023°45'713.8
2017-Oct-17 11:00N 38°12' W 023°53'713.5
2017-Oct-17 10:30N 38°12' W 024°02'713.8
2017-Oct-17 10:00N 38°12' W 024°11'713.7
2017-Oct-17 09:30N 38°12' W 024°20'713.6
2017-Oct-17 09:00N 38°12' W 024°28'713.6
2017-Oct-17 08:30N 38°12' W 024°37'713.7
2017-Oct-17 08:00N 38°12' W 024°45'713.8
2017-Oct-17 07:31N 38°13' W 024°54'713.8
2017-Oct-17 07:01N 38°13' W 025°03'713.7
2017-Oct-17 06:31N 38°13' W 025°12'713.8
2017-Oct-17 06:00N 38°13' W 025°20'713.3
2017-Oct-17 05:31N 38°13' W 025°29'713.6
2017-Oct-17 05:01N 38°12' W 025°37'713.4
2017-Oct-17 04:31N 38°11' W 025°46'612.9
2017-Oct-17 04:00N 38°10' W 025°54'713.1
2017-Oct-17 03:30N 38°08' W 026°02'713.3
2017-Oct-17 03:01N 38°07' W 026°10'713.0
2017-Oct-17 02:30N 38°06' W 026°19'612.8
2017-Oct-17 02:00N 38°05' W 026°27'713.0
2017-Oct-17 01:30N 38°04' W 026°35'713.0
2017-Oct-17 01:00N 38°03' W 026°43'613.0
2017-Oct-17 00:31N 38°02' W 026°51'612.9
2017-Oct-17 00:00N 38°01' W 026°59'713.1
2017-Oct-16 23:30N 37°59' W 027°07'713.2
2017-Oct-16 23:00N 37°58' W 027°16'713.4
2017-Oct-16 22:30N 37°57' W 027°24'9613.5
2017-Oct-16 15:23N 37°49' W 029°25'  

Dump ship's entire track history